Time;durP1;ratioP1;P1;durP2;ratioP2;P2;SDS_P1;SDS_P2;PMS_P1;PMS_P2;Temp;Humidity;BMP_temperature;BMP_pressure;BME280_temperature;BME280_humidity;BME280_pressure;Samples;Min_cycle;Max_cycle;Signal;HPM_P1;HPM_P2
2022/05/12 00:00:54;;;;;;;3.60;1.15;;;15.80;90.50;;;;;;4990925;28;20490;-71
2022/05/12 00:03:20;;;;;;;2.60;1.35;;;15.80;90.40;;;;;;4989772;28;20038;-70
2022/05/12 00:05:46;;;;;;;2.65;1.42;;;15.70;90.30;;;;;;4991047;28;20030;-70
2022/05/12 00:08:13;;;;;;;4.25;1.20;;;15.80;90.30;;;;;;4990454;28;20038;-70
2022/05/12 00:10:40;;;;;;;8.77;1.45;;;15.70;90.30;;;;;;4991282;28;20037;-70
2022/05/12 00:13:07;;;;;;;3.33;1.13;;;15.70;90.20;;;;;;4991012;28;20367;-70
2022/05/12 00:15:34;;;;;;;7.22;1.55;;;15.70;90.10;;;;;;4991225;28;20059;-70
2022/05/12 00:18:04;;;;;;;2.25;1.13;;;15.70;90.10;;;;;;4994546;28;20034;-70
2022/05/12 00:20:30;;;;;;;1.08;0.85;;;15.70;90.00;;;;;;4995042;28;20409;-70
2022/05/12 00:23:12;;;;;;;3.00;1.25;;;15.60;89.90;;;;;;4993499;28;20073;-70
2022/05/12 00:25:39;;;;;;;4.95;1.42;;;15.60;89.70;;;;;;4994531;28;20500;-70
2022/05/12 00:28:05;;;;;;;8.52;1.65;;;15.60;89.60;;;;;;4994291;28;20030;-70
2022/05/12 00:30:31;;;;;;;2.20;1.52;;;15.60;89.50;;;;;;4993898;28;20026;-70
2022/05/12 00:32:57;;;;;;;5.05;1.33;;;15.50;89.30;;;;;;4994540;28;20023;-70
2022/05/12 00:35:23;;;;;;;2.50;1.27;;;15.50;89.20;;;;;;4994422;28;20057;-70
2022/05/12 00:37:49;;;;;;;3.72;1.50;;;15.50;89.20;;;;;;4993672;28;20030;-70
2022/05/12 00:40:16;;;;;;;4.13;1.75;;;15.50;89.10;;;;;;4994476;28;20117;-70
2022/05/12 00:42:59;;;;;;;3.05;1.10;;;15.40;88.90;;;;;;4994420;28;20046;-70
2022/05/12 00:45:27;;;;;;;3.17;1.23;;;15.40;88.80;;;;;;4990326;28;20741;-70
2022/05/12 00:47:53;;;;;;;4.75;1.95;;;15.40;88.60;;;;;;4993793;28;20465;-70
2022/05/12 00:50:24;;;;;;;6.10;1.20;;;15.40;88.40;;;;;;4993262;28;20035;-70
2022/05/12 00:52:50;;;;;;;2.53;1.13;;;15.40;88.40;;;;;;4994085;28;20034;-70
2022/05/12 00:55:25;;;;;;;1.58;1.00;;;15.30;88.20;;;;;;4994023;28;20030;-70
2022/05/12 00:57:55;;;;;;;3.65;1.20;;;15.30;88.20;;;;;;4993383;28;20030;-70
2022/05/12 01:00:23;;;;;;;2.15;0.75;;;15.20;88.10;;;;;;4993907;28;20042;-70
2022/05/12 01:02:53;;;;;;;1.55;1.02;;;15.20;88.00;;;;;;4994160;28;20038;-70
2022/05/12 01:05:26;;;;;;;0.57;0.57;;;15.20;87.90;;;;;;4992832;28;20039;-70
2022/05/12 01:07:55;;;;;;;3.20;0.85;;;15.20;87.70;;;;;;4994291;28;20108;-70
2022/05/12 01:10:23;;;;;;;1.15;1.10;;;15.20;87.60;;;;;;4993306;28;20038;-70
2022/05/12 01:12:50;;;;;;;1.52;0.82;;;15.10;87.60;;;;;;4993237;28;20436;-70
2022/05/12 01:15:17;;;;;;;5.32;1.65;;;15.00;87.50;;;;;;4993854;28;20031;-70
2022/05/12 01:17:46;;;;;;;1.65;0.60;;;15.00;87.40;;;;;;4993403;28;20045;-70
2022/05/12 01:20:16;;;;;;;3.22;1.35;;;15.00;87.30;;;;;;4993070;28;20113;-70
2022/05/12 01:23:25;;;;;;;1.38;1.00;;;14.90;87.30;;;;;;4993219;28;20141;-70
2022/05/12 01:25:59;;;;;;;0.98;0.77;;;14.90;87.30;;;;;;4982359;28;20121;-70
2022/05/12 01:28:25;;;;;;;3.92;0.75;;;14.80;87.10;;;;;;4993155;28;20030;-70
2022/05/12 01:30:51;;;;;;;0.90;0.80;;;14.80;87.10;;;;;;4993507;28;20089;-70
2022/05/12 01:33:17;;;;;;;6.68;1.10;;;14.80;87.20;;;;;;4992775;28;20030;-70
2022/05/12 01:35:43;;;;;;;1.70;1.00;;;14.70;87.20;;;;;;4993260;28;20410;-70
2022/05/12 01:38:09;;;;;;;4.10;0.70;;;14.70;87.20;;;;;;4993171;28;20030;-70
2022/05/12 01:40:34;;;;;;;2.08;1.02;;;14.60;87.20;;;;;;4992964;28;20034;-70
2022/05/12 01:43:00;;;;;;;0.45;0.45;;;14.60;87.20;;;;;;4992079;28;20509;-70
2022/05/12 01:45:26;;;;;;;0.63;0.63;;;14.50;87.20;;;;;;4992678;28;20030;-70
2022/05/12 01:47:53;;;;;;;0.60;0.55;;;14.40;87.40;;;;;;4992342;28;20479;-70
2022/05/12 01:50:20;;;;;;;1.70;0.80;;;14.40;87.50;;;;;;4993132;28;20035;-70
2022/05/12 01:52:46;;;;;;;0.73;0.57;;;14.40;87.70;;;;;;4993235;28;20058;-70
2022/05/12 01:55:17;;;;;;;0.85;0.60;;;14.30;87.80;;;;;;4992160;28;20042;-70
2022/05/12 01:57:43;;;;;;;0.45;0.45;;;14.30;87.90;;;;;;4993030;28;20034;-70
2022/05/12 02:00:17;;;;;;;3.28;1.05;;;14.20;87.90;;;;;;4992917;28;20026;-70
2022/05/12 02:02:47;;;;;;;2.55;1.10;;;14.20;88.00;;;;;;4992138;28;20053;-70
2022/05/12 02:05:13;;;;;;;0.65;0.65;;;14.10;88.00;;;;;;4992719;28;20085;-70
2022/05/12 02:07:45;;;;;;;1.38;1.02;;;14.00;88.10;;;;;;4991935;28;20062;-70
2022/05/12 02:10:14;;;;;;;0.52;0.52;;;14.00;88.20;;;;;;4992816;28;20104;-70
2022/05/12 02:12:40;;;;;;;1.55;0.77;;;13.90;88.30;;;;;;4992694;28;20077;-70
2022/05/12 02:15:06;;;;;;;1.15;0.80;;;13.90;88.50;;;;;;4991989;28;20466;-70
2022/05/12 02:17:32;;;;;;;1.13;0.60;;;13.90;88.70;;;;;;4992502;28;20049;-70
2022/05/12 02:19:58;;;;;;;1.13;0.98;;;13.80;88.80;;;;;;4992616;28;20390;-70
2022/05/12 02:22:24;;;;;;;0.95;0.75;;;13.80;88.90;;;;;;4991461;28;20042;-70
2022/05/12 02:24:50;;;;;;;0.73;0.73;;;13.70;88.90;;;;;;4992704;28;20105;-70
2022/05/12 02:27:16;;;;;;;4.68;0.80;;;13.70;88.90;;;;;;4991992;28;20033;-70
2022/05/12 02:29:42;;;;;;;2.60;1.00;;;13.70;88.90;;;;;;4991904;28;20049;-70
2022/05/12 02:32:07;;;;;;;2.55;0.80;;;13.70;89.00;;;;;;4992159;28;20080;-70
2022/05/12 02:34:34;;;;;;;2.20;0.80;;;13.70;89.00;;;;;;4992593;28;20390;-70
2022/05/12 02:37:01;;;;;;;0.50;0.50;;;13.60;89.00;;;;;;4991847;28;20038;-70
2022/05/12 02:39:32;;;;;;;0.40;0.40;;;13.60;89.10;;;;;;4991429;28;20651;-70
2022/05/12 02:41:59;;;;;;;0.30;0.30;;;13.50;89.20;;;;;;4992427;28;20042;-70
2022/05/12 02:44:25;;;;;;;0.77;0.77;;;13.50;89.30;;;;;;4991204;28;20363;-70
2022/05/12 02:46:51;;;;;;;8.85;1.85;;;13.50;89.50;;;;;;4992114;28;20042;-70
2022/05/12 02:49:20;;;;;;;4.85;0.60;;;13.40;89.70;;;;;;4992070;28;20026;-70
2022/05/12 02:51:47;;;;;;;1.08;0.85;;;13.30;89.80;;;;;;4991010;28;20032;-70
2022/05/12 02:54:14;;;;;;;0.82;0.82;;;13.30;90.00;;;;;;4992033;28;20493;-70
2022/05/12 02:56:39;;;;;;;0.75;0.40;;;13.40;90.10;;;;;;4991906;28;20109;-70
2022/05/12 02:59:06;;;;;;;0.40;0.40;;;13.30;90.10;;;;;;4991153;28;20572;-70
2022/05/12 03:01:32;;;;;;;1.08;0.65;;;13.30;90.10;;;;;;4991517;28;20034;-70
2022/05/12 03:03:57;;;;;;;8.55;1.42;;;13.30;90.20;;;;;;4991083;28;20142;-70
2022/05/12 03:06:23;;;;;;;2.45;1.02;;;13.20;90.20;;;;;;4991607;28;20034;-70
2022/05/12 03:08:49;;;;;;;5.85;0.85;;;13.20;90.30;;;;;;4992001;28;20030;-70
2022/05/12 03:11:17;;;;;;;0.60;0.60;;;13.20;90.30;;;;;;4978711;28;20052;-70
2022/05/12 03:13:43;;;;;;;5.88;1.42;;;13.10;90.40;;;;;;4991450;28;20529;-70
2022/05/12 03:16:10;;;;;;;0.60;0.60;;;13.10;90.40;;;;;;4991977;28;20386;-70
2022/05/12 03:18:39;;;;;;;0.82;0.82;;;13.10;90.40;;;;;;4990913;28;20386;-70
2022/05/12 03:21:05;;;;;;;3.78;1.13;;;13.10;90.30;;;;;;4991771;28;20073;-70
2022/05/12 03:23:31;;;;;;;4.53;1.67;;;13.10;90.30;;;;;;4991214;28;20072;-70
2022/05/12 03:25:57;;;;;;;0.57;0.57;;;13.10;90.20;;;;;;4991360;28;20034;-70
2022/05/12 03:28:23;;;;;;;0.68;0.68;;;13.10;90.20;;;;;;4991065;28;20061;-70
2022/05/12 03:30:49;;;;;;;1.30;1.02;;;13.10;90.10;;;;;;4991508;28;20035;-70
2022/05/12 03:33:15;;;;;;;0.88;0.82;;;13.10;90.20;;;;;;4990798;28;20030;-70
2022/05/12 03:35:41;;;;;;;0.98;0.77;;;13.10;90.20;;;;;;4991886;28;20027;-69
2022/05/12 03:38:07;;;;;;;1.23;0.63;;;13.00;90.20;;;;;;4991241;28;20530;-69
2022/05/12 03:40:35;;;;;;;4.10;2.17;;;13.00;90.20;;;;;;4991074;28;20109;-69
2022/05/12 03:43:01;;;;;;;4.82;1.05;;;13.00;90.30;;;;;;4991445;28;20125;-70
2022/05/12 03:45:27;;;;;;;2.42;1.20;;;13.00;90.20;;;;;;4991517;28;20109;-70
2022/05/12 03:47:55;;;;;;;2.88;1.20;;;13.00;90.20;;;;;;4990581;28;20030;-70
2022/05/12 03:50:24;;;;;;;0.80;0.73;;;12.90;90.30;;;;;;4993360;28;20066;-71
2022/05/12 03:52:52;;;;;;;4.18;1.38;;;12.90;90.30;;;;;;4995341;28;20034;-73
2022/05/12 03:55:21;;;;;;;0.40;0.40;;;12.80;90.30;;;;;;4994799;28;20034;-70
2022/05/12 03:57:48;;;;;;;1.90;1.20;;;12.80;90.40;;;;;;4995340;28;20038;-71
2022/05/12 04:00:19;;;;;;;1.10;0.85;;;12.80;90.50;;;;;;4994480;28;20038;-72
2022/05/12 04:02:46;;;;;;;1.58;0.82;;;12.80;90.60;;;;;;4994955;28;20141;-70
2022/05/12 04:05:12;;;;;;;2.45;1.30;;;12.70;90.70;;;;;;4994601;28;20049;-70
2022/05/12 04:07:43;;;;;;;3.05;1.42;;;12.70;90.80;;;;;;4993945;28;20114;-70
2022/05/12 04:10:10;;;;;;;1.42;1.10;;;12.70;90.90;;;;;;4993862;28;20026;-70
2022/05/12 04:12:36;;;;;;;0.38;0.38;;;12.70;90.90;;;;;;4993876;28;20409;-71
2022/05/12 04:15:04;;;;;;;1.95;1.35;;;12.60;91.00;;;;;;4993323;28;20065;-70
2022/05/12 04:17:29;;;;;;;3.45;1.40;;;12.60;91.10;;;;;;4990881;28;20390;-71
2022/05/12 04:19:55;;;;;;;2.88;0.77;;;12.60;91.10;;;;;;4993725;28;20026;-71
2022/05/12 04:22:21;;;;;;;1.48;1.38;;;12.60;91.20;;;;;;4992756;28;20125;-71
2022/05/12 04:24:46;;;;;;;8.32;2.17;;;12.60;91.20;;;;;;4993360;28;20042;-71
2022/05/12 04:27:13;;;;;;;1.20;1.10;;;12.60;91.30;;;;;;4993450;28;20490;-71
2022/05/12 04:29:42;;;;;;;2.67;1.27;;;12.60;91.40;;;;;;4992894;28;20050;-71
2022/05/12 04:32:09;;;;;;;2.90;1.40;;;12.60;91.50;;;;;;4993420;28;20034;-71
2022/05/12 04:37:25;;;;;;;3.20;1.15;;;12.50;91.70;;;;;;4991782;28;20022;-71
2022/05/12 04:39:51;;;;;;;5.78;1.23;;;12.50;91.90;;;;;;4993524;28;20109;-70
2022/05/12 04:42:16;;;;;;;1.88;1.25;;;12.50;91.90;;;;;;4992650;28;20462;-71
2022/05/12 04:44:42;;;;;;;5.65;2.35;;;12.50;92.00;;;;;;4994390;28;20027;-70
2022/05/12 04:47:08;;;;;;;1.00;1.00;;;12.50;92.10;;;;;;4994146;28;20362;-70
2022/05/12 04:49:34;;;;;;;3.90;2.08;;;12.50;92.10;;;;;;4993895;28;20045;-70
2022/05/12 04:52:02;;;;;;;3.85;1.45;;;12.50;92.10;;;;;;4994103;28;20428;-70
2022/05/12 04:54:29;;;;;;;1.35;0.90;;;12.50;92.20;;;;;;4994050;28;20026;-72
2022/05/12 04:56:56;;;;;;;2.50;1.25;;;12.50;92.30;;;;;;4993750;28;20030;-71
2022/05/12 04:59:22;;;;;;;3.95;1.60;;;12.50;92.30;;;;;;4993644;28;20034;-71
2022/05/12 05:01:48;;;;;;;5.15;1.63;;;12.60;92.50;;;;;;4993203;28;20057;-72
2022/05/12 05:04:13;;;;;;;0.90;0.90;;;12.50;92.60;;;;;;4993200;28;20042;-72
2022/05/12 05:06:39;;;;;;;1.60;1.42;;;12.50;92.80;;;;;;4993124;28;20038;-72
2022/05/12 05:09:06;;;;;;;3.40;1.35;;;12.50;92.90;;;;;;4993995;28;20125;-71
2022/05/12 05:11:33;;;;;;;6.78;2.40;;;12.50;92.90;;;;;;4992678;28;20048;-70
2022/05/12 05:13:59;;;;;;;5.07;1.88;;;12.50;92.90;;;;;;4992145;28;20027;-71
2022/05/12 05:16:26;;;;;;;3.13;1.92;;;12.60;93.00;;;;;;4991060;28;20038;-69
2022/05/12 05:18:51;;;;;;;2.15;1.33;;;12.60;93.10;;;;;;4990946;28;20113;-69
2022/05/12 05:21:17;;;;;;;2.38;1.58;;;12.60;93.20;;;;;;4990772;28;20501;-68
2022/05/12 05:23:42;;;;;;;4.72;2.35;;;12.60;93.30;;;;;;4988523;28;20058;-74
2022/05/12 05:26:08;;;;;;;4.22;1.67;;;12.60;93.40;;;;;;4987730;28;20069;-70
2022/05/12 05:28:36;;;;;;;3.05;1.67;;;12.60;93.50;;;;;;4990085;28;20038;-74
2022/05/12 05:31:03;;;;;;;6.57;1.98;;;12.60;93.60;;;;;;4991548;28;20125;-68
2022/05/12 05:33:28;;;;;;;4.60;2.05;;;12.70;93.70;;;;;;4988440;28;20038;-69
2022/05/12 05:35:54;;;;;;;3.67;1.52;;;12.60;93.80;;;;;;4990578;28;20113;-68
2022/05/12 05:38:20;;;;;;;5.28;2.47;;;12.60;93.90;;;;;;4993271;28;20474;-68
2022/05/12 05:40:46;;;;;;;3.40;1.75;;;12.60;94.00;;;;;;4992522;28;20092;-68
2022/05/12 05:43:12;;;;;;;2.28;1.50;;;12.60;94.10;;;;;;4990543;28;20077;-71
2022/05/12 05:45:37;;;;;;;2.40;1.00;;;12.70;94.30;;;;;;4990574;28;20038;-69
2022/05/12 05:48:05;;;;;;;3.05;1.17;;;12.70;94.30;;;;;;4990335;28;20034;-69
2022/05/12 05:53:26;;;;;;;28.33;3.67;;;12.70;94.40;;;;;;4979275;28;20586;-73
2022/05/12 05:55:54;;;;;;;1.83;1.35;;;12.70;94.50;;;;;;4990270;28;20069;-71
2022/05/12 05:58:21;;;;;;;2.13;1.70;;;12.70;94.60;;;;;;4991552;28;20036;-70
2022/05/12 06:00:47;;;;;;;4.43;1.63;;;12.80;94.70;;;;;;4991071;28;20478;-72
2022/05/12 06:03:13;;;;;;;2.38;1.73;;;12.80;94.80;;;;;;4990178;28;20042;-76
2022/05/12 06:05:39;;;;;;;2.53;1.48;;;12.80;94.80;;;;;;4989895;28;20041;-75
2022/05/12 06:08:05;;;;;;;5.63;1.42;;;12.90;94.90;;;;;;4987426;28;20453;-72
2022/05/12 06:10:31;;;;;;;7.70;2.22;;;12.90;94.90;;;;;;4988158;28;20759;-76
2022/05/12 06:12:58;;;;;;;2.92;1.67;;;13.00;94.90;;;;;;4988193;28;20049;-75
2022/05/12 06:15:26;;;;;;;6.95;1.60;;;13.00;94.90;;;;;;4987682;28;20022;-73
2022/05/12 06:17:52;;;;;;;4.05;1.52;;;13.00;94.90;;;;;;4988779;28;20032;-72
2022/05/12 06:20:18;;;;;;;1.13;0.95;;;13.10;95.00;;;;;;4989112;28;20049;-71
2022/05/12 06:22:44;;;;;;;1.67;1.40;;;13.10;95.00;;;;;;4987934;28;20044;-71
2022/05/12 06:25:12;;;;;;;3.22;1.55;;;13.10;95.10;;;;;;4989040;28;20026;-71
2022/05/12 06:27:37;;;;;;;3.72;2.25;;;13.20;95.20;;;;;;4989343;28;20077;-72
2022/05/12 06:30:07;;;;;;;4.95;1.80;;;13.20;95.20;;;;;;4985943;28;20073;-72
2022/05/12 06:32:33;;;;;;;3.28;1.75;;;13.20;95.20;;;;;;4989124;28;20042;-72
2022/05/12 06:34:59;;;;;;;2.45;1.50;;;13.30;95.30;;;;;;4989639;28;20037;-72
2022/05/12 06:37:24;;;;;;;12.50;2.90;;;13.30;95.30;;;;;;4991186;28;20038;-72
2022/05/12 06:39:50;;;;;;;4.18;1.50;;;13.30;95.30;;;;;;4991765;28;20550;-72
2022/05/12 06:42:16;;;;;;;3.35;1.10;;;13.30;95.40;;;;;;4991229;28;20042;-72
2022/05/12 06:44:42;;;;;;;7.03;1.65;;;13.40;95.40;;;;;;4992328;28;20026;-72
2022/05/12 06:47:13;;;;;;;2.75;1.50;;;13.40;95.30;;;;;;4992210;28;20061;-71
2022/05/12 06:49:40;;;;;;;3.83;1.48;;;13.50;95.40;;;;;;4991692;28;20038;-72
2022/05/12 06:52:07;;;;;;;6.93;1.98;;;13.40;95.40;;;;;;4991538;28;20030;-71
2022/05/12 06:54:34;;;;;;;2.60;1.45;;;13.40;95.40;;;;;;4991630;28;20489;-73
2022/05/12 06:57:01;;;;;;;4.70;1.45;;;13.50;95.40;;;;;;4988977;28;20509;-72
2022/05/12 06:59:27;;;;;;;3.92;2.13;;;13.50;95.40;;;;;;4991574;28;20026;-68
2022/05/12 07:01:56;;;;;;;5.95;1.73;;;13.50;95.40;;;;;;4992282;28;20389;-71
2022/05/12 07:04:24;;;;;;;6.35;1.70;;;13.50;95.40;;;;;;4984816;28;20501;-71
2022/05/12 07:06:50;;;;;;;2.25;1.13;;;13.60;95.50;;;;;;4990913;28;20053;-71
2022/05/12 07:09:18;;;;;;;10.80;1.83;;;13.60;95.50;;;;;;4990530;28;20382;-71
2022/05/12 07:11:45;;;;;;;4.32;1.20;;;13.60;95.50;;;;;;4989315;28;20397;-71
2022/05/12 07:14:12;;;;;;;4.30;1.90;;;13.60;95.50;;;;;;4990137;28;20057;-71
2022/05/12 07:16:38;;;;;;;5.82;2.08;;;13.70;95.60;;;;;;4984388;28;20042;-72
2022/05/12 07:19:03;;;;;;;2.20;1.38;;;13.70;95.60;;;;;;4990289;28;20498;-71
2022/05/12 07:26:58;;;;;;;1.98;1.20;;;13.80;95.50;;;;;;4986901;28;20026;-71
2022/05/12 07:29:26;;;;;;;3.70;1.40;;;13.80;95.40;;;;;;4987454;28;20509;-71
2022/05/12 07:31:52;;;;;;;7.57;1.58;;;13.80;95.40;;;;;;4988116;28;20065;-72
2022/05/12 07:34:19;;;;;;;2.90;1.08;;;13.90;95.40;;;;;;4988325;28;20027;-71
2022/05/12 07:36:50;;;;;;;8.55;1.38;;;13.90;95.30;;;;;;4988460;28;20038;-72
2022/05/12 07:39:18;;;;;;;4.70;1.45;;;13.90;95.30;;;;;;4985942;28;20057;-72
2022/05/12 07:41:44;;;;;;;3.85;1.38;;;14.00;95.20;;;;;;4988257;28;20042;-72
2022/05/12 07:44:13;;;;;;;5.88;2.28;;;14.00;95.20;;;;;;4988166;28;20041;-72
2022/05/12 07:46:39;;;;;;;3.38;1.52;;;14.10;95.20;;;;;;4987912;28;20046;-72
2022/05/12 07:49:05;;;;;;;7.78;2.13;;;14.10;95.20;;;;;;4988590;28;20062;-71
2022/05/12 07:51:31;;;;;;;8.30;1.75;;;14.10;95.10;;;;;;4987488;28;20061;-71
2022/05/12 07:53:57;;;;;;;4.38;1.70;;;14.10;95.00;;;;;;4987265;28;20019;-71
2022/05/12 07:56:26;;;;;;;3.97;1.90;;;14.20;95.00;;;;;;4987754;28;20509;-72
2022/05/12 07:58:53;;;;;;;7.50;1.90;;;14.20;95.00;;;;;;4988513;28;20026;-70
2022/05/12 08:01:20;;;;;;;5.38;2.17;;;14.20;94.90;;;;;;4987193;28;20038;-70
2022/05/12 08:03:47;;;;;;;3.28;1.20;;;14.20;94.80;;;;;;4988371;28;20054;-70
2022/05/12 08:06:15;;;;;;;0.77;0.77;;;14.30;94.80;;;;;;4988190;28;20508;-69
2022/05/12 08:08:44;;;;;;;8.65;0.95;;;14.30;94.70;;;;;;4987489;28;20536;-67
2022/05/12 08:11:10;;;;;;;3.65;1.48;;;14.40;94.50;;;;;;4987866;28;20030;-71
2022/05/12 08:13:37;;;;;;;1.58;1.27;;;14.50;94.40;;;;;;4987600;28;20097;-71
2022/05/12 08:16:07;;;;;;;2.05;1.23;;;14.50;94.30;;;;;;4985675;28;20030;-71
2022/05/12 08:18:37;;;;;;;0.75;0.75;;;14.50;94.20;;;;;;4988320;28;20069;-73
2022/05/12 08:21:03;;;;;;;5.13;1.83;;;14.60;94.10;;;;;;4984695;28;20113;-72
2022/05/12 08:23:31;;;;;;;3.05;1.38;;;14.70;94.00;;;;;;4988606;28;20732;-69
2022/05/12 08:25:57;;;;;;;3.97;1.20;;;14.70;94.00;;;;;;4988467;28;20035;-71
2022/05/12 08:28:24;;;;;;;1.75;1.23;;;14.70;93.90;;;;;;4986111;28;20073;-71
2022/05/12 08:30:51;;;;;;;11.07;1.52;;;14.80;93.70;;;;;;4987806;28;20411;-71
2022/05/12 08:33:17;;;;;;;2.70;1.10;;;14.80;93.50;;;;;;4985338;28;20382;-71
2022/05/12 08:35:43;;;;;;;2.40;1.02;;;14.80;93.30;;;;;;4989475;28;20038;-71
2022/05/12 08:38:14;;;;;;;1.63;1.05;;;14.90;93.10;;;;;;4993437;28;20571;-72
2022/05/12 08:41:04;;;;;;;2.20;1.27;;;14.90;93.10;;;;;;4994252;28;20050;-72
2022/05/12 08:43:44;;;;;;;4.57;1.30;;;15.00;93.30;;;;;;4993796;28;20052;-72
2022/05/12 08:46:30;;;;;;;3.80;1.42;;;15.00;93.00;;;;;;4994207;28;20028;-72
2022/05/12 08:49:10;;;;;;;2.85;1.30;;;15.00;93.00;;;;;;4993785;28;20066;-72
2022/05/12 08:51:36;;;;;;;3.10;1.10;;;15.00;92.90;;;;;;4994108;28;20050;-71
2022/05/12 08:54:07;;;;;;;3.70;1.13;;;15.00;93.10;;;;;;4994414;28;20035;-72
2022/05/12 08:56:35;;;;;;;10.07;2.33;;;15.10;92.90;;;;;;4993040;28;20042;-72
2022/05/12 08:59:01;;;;;;;3.95;1.73;;;15.10;92.80;;;;;;4994025;28;20033;-72
2022/05/12 09:01:38;;;;;;;2.78;1.42;;;15.10;92.60;;;;;;4993978;28;20052;-72
2022/05/12 09:04:12;;;;;;;4.55;1.50;;;15.20;92.50;;;;;;4993105;28;20100;-71
2022/05/12 09:07:03;;;;;;;6.40;1.40;;;15.20;92.30;;;;;;4993621;28;20421;-72
2022/05/12 09:09:53;;;;;;;5.00;1.35;;;15.30;92.10;;;;;;4993408;28;20474;-72
2022/05/12 09:12:45;;;;;;;13.55;1.73;;;15.40;91.90;;;;;;4993792;28;20544;-71
2022/05/12 09:15:17;;;;;;;7.38;1.48;;;15.40;91.80;;;;;;4993860;28;20573;-73
2022/05/12 09:17:57;;;;;;;4.83;1.60;;;15.40;91.40;;;;;;4980646;28;20034;-72
2022/05/12 09:20:25;;;;;;;5.28;1.40;;;15.40;91.00;;;;;;4993545;28;20042;-72
2022/05/12 09:22:51;;;;;;;1.95;1.42;;;15.50;91.00;;;;;;4993700;28;20473;-72
2022/05/12 09:25:34;;;;;;;3.63;0.85;;;15.50;90.70;;;;;;4992734;28;20031;-72
2022/05/12 09:28:25;;;;;;;2.30;0.98;;;15.50;90.80;;;;;;4994008;28;20385;-72
2022/05/12 09:30:51;;;;;;;2.10;0.95;;;15.60;90.80;;;;;;4993119;28;20371;-75
2022/05/12 09:33:31;;;;;;;6.00;1.67;;;15.60;90.50;;;;;;4992541;28;20026;-72
2022/05/12 09:36:00;;;;;;;4.47;1.58;;;15.70;90.50;;;;;;4994143;28;20045;-71
2022/05/12 09:38:26;;;;;;;2.95;1.40;;;15.70;90.50;;;;;;4992420;28;20089;-72
2022/05/12 09:40:54;;;;;;;4.47;1.70;;;15.70;90.40;;;;;;4992842;28;20489;-71
2022/05/12 09:43:32;;;;;;;8.30;1.15;;;15.80;90.30;;;;;;4993878;28;20066;-70
2022/05/12 09:46:18;;;;;;;3.45;1.33;;;15.80;90.20;;;;;;4992848;28;20073;-71
2022/05/12 09:48:48;;;;;;;4.55;1.73;;;15.90;90.10;;;;;;4993194;28;20077;-71
2022/05/12 09:51:25;;;;;;;2.60;0.73;;;15.90;90.20;;;;;;4992699;28;20106;-72
2022/05/12 09:53:54;;;;;;;4.35;1.20;;;16.00;90.10;;;;;;4992656;28;20105;-71
2022/05/12 09:56:33;;;;;;;4.28;0.80;;;16.00;90.10;;;;;;4992663;28;20062;-71
2022/05/12 09:59:10;;;;;;;3.47;1.35;;;16.10;90.10;;;;;;4991719;28;20510;-71
2022/05/12 10:01:50;;;;;;;2.28;1.13;;;16.10;89.70;;;;;;4992806;28;20068;-71
2022/05/12 10:10:11;;;;;;;1.95;1.00;;;16.10;88.80;;;;;;4992680;28;20034;-71
2022/05/12 10:12:48;;;;;;;3.50;1.30;;;16.20;88.80;;;;;;4992561;28;20083;-71
2022/05/12 10:15:16;;;;;;;3.03;1.25;;;16.20;87.50;;;;;;4992162;28;20485;-71
2022/05/12 10:17:42;;;;;;;0.63;0.60;;;16.20;87.20;;;;;;4992883;28;20035;-71
2022/05/12 10:20:23;;;;;;;4.95;1.20;;;16.30;87.00;;;;;;4992106;28;20178;-71
2022/05/12 10:23:04;;;;;;;4.10;1.27;;;16.40;86.90;;;;;;4992500;28;20125;-71
2022/05/12 10:25:56;;;;;;;1.80;1.10;;;16.50;86.30;;;;;;4992257;28;20062;-71
2022/05/12 10:28:44;;;;;;;4.30;1.67;;;16.50;86.00;;;;;;4991464;28;20113;-71
2022/05/12 10:31:23;;;;;;;3.47;1.50;;;16.50;85.40;;;;;;4992894;28;20027;-71
2022/05/12 10:33:58;;;;;;;3.33;1.40;;;16.60;85.70;;;;;;4992333;28;20030;-71
2022/05/12 10:36:45;;;;;;;0.95;0.70;;;16.70;85.00;;;;;;4992272;28;20026;-71
2022/05/12 10:39:52;;;;;;;1.95;1.27;;;16.70;84.70;;;;;;4992861;28;20045;-71
2022/05/12 10:42:57;;;;;;;0.98;0.90;;;16.80;84.50;;;;;;4983384;28;20057;-71
2022/05/12 10:45:26;;;;;;;;;;;16.90;84.60;;;;;;4992784;28;20038;-71
2022/05/12 10:48:07;;;;;;;0.90;0.90;;;16.90;84.10;;;;;;4992279;28;20258;-71
2022/05/12 10:51:13;;;;;;;3.33;1.45;;;16.90;83.90;;;;;;4992499;28;20046;-71
2022/05/12 10:53:39;;;;;;;1.60;1.13;;;17.00;83.70;;;;;;4976559;28;20074;-71
2022/05/12 10:56:37;;;;;;;0.60;0.60;;;17.00;83.40;;;;;;4991282;28;20102;-71
2022/05/12 10:59:24;;;;;;;0.85;0.65;;;17.10;83.90;;;;;;4991491;28;20066;-71
2022/05/12 11:01:52;;;;;;;2.88;1.00;;;17.20;83.50;;;;;;4980899;28;20050;-71
2022/05/12 11:04:31;;;;;;;0.73;0.73;;;17.20;83.20;;;;;;4990955;28;20588;-71
2022/05/12 11:07:04;;;;;;;3.05;1.02;;;17.40;82.90;;;;;;4992322;28;20026;-71
2022/05/12 11:09:46;;;;;;;0.80;0.68;;;17.40;81.80;;;;;;4990937;28;20145;-71
2022/05/12 11:12:30;;;;;;;3.40;1.13;;;17.40;81.60;;;;;;4991461;28;20052;-71
2022/05/12 11:15:08;;;;;;;2.88;0.88;;;17.40;81.80;;;;;;4991600;28;20133;-71
2022/05/12 11:17:46;;;;;;;1.48;0.60;;;17.50;81.00;;;;;;4990908;28;20046;-71
2022/05/12 11:20:32;;;;;;;4.50;0.70;;;17.50;81.30;;;;;;4991795;28;20026;-71
2022/05/12 11:23:52;;;;;;;0.90;0.77;;;17.50;82.10;;;;;;4991690;28;20472;-71
2022/05/12 11:26:27;;;;;;;4.85;0.70;;;17.60;81.50;;;;;;4969962;28;20053;-71
2022/05/12 11:32:08;;;;;;;3.10;1.30;;;17.60;80.60;;;;;;4990840;28;20386;-71
2022/05/12 11:34:37;;;;;;;1.17;1.00;;;17.70;80.70;;;;;;4992037;28;20763;-71
2022/05/12 11:37:28;;;;;;;0.75;0.60;;;17.70;79.40;;;;;;4980153;28;20096;-71
2022/05/12 11:39:59;;;;;;;3.42;0.90;;;17.70;79.90;;;;;;4973041;28;20034;-71
2022/05/12 11:44:23;;;;;;;2.85;0.85;;;17.80;79.20;;;;;;4991508;28;20042;-71
2022/05/12 11:45:36;;;;;;;4.68;1.30;;;17.80;78.60;;;;;;4990994;28;20037;-72
2022/05/12 11:48:31;;;;;;;3.30;0.70;;;17.90;78.20;;;;;;4991913;28;20052;-71
2022/05/12 11:51:14;;;;;;;0.60;0.60;;;17.90;78.60;;;;;;4991345;28;20077;-72
2022/05/12 11:54:01;;;;;;;3.10;1.45;;;18.00;79.10;;;;;;4989919;28;20077;-72
2022/05/12 11:56:54;;;;;;;1.88;0.93;;;18.00;79.10;;;;;;4988297;28;20727;-68
2022/05/12 11:59:26;;;;;;;2.70;1.02;;;18.00;78.10;;;;;;4988115;28;20026;-67
2022/05/12 12:02:06;;;;;;;1.42;0.95;;;18.10;78.00;;;;;;4990177;28;20039;-67
2022/05/12 12:04:51;;;;;;;1.20;0.65;;;18.20;78.30;;;;;;4987799;28;20080;-67
2022/05/12 12:07:32;;;;;;;3.42;0.70;;;18.20;78.90;;;;;;4988241;28;20037;-67
2022/05/12 12:10:22;;;;;;;1.45;1.02;;;18.30;78.30;;;;;;4988963;28;20030;-71
2022/05/12 12:13:00;;;;;;;5.00;1.10;;;18.40;77.60;;;;;;4993007;28;20139;-72
2022/05/12 12:15:30;;;;;;;2.90;1.17;;;18.40;77.20;;;;;;4994662;28;20137;-73
2022/05/12 12:18:22;;;;;;;2.22;0.90;;;18.40;76.40;;;;;;4994488;28;20481;-66
2022/05/12 12:20:54;;;;;;;2.15;1.00;;;18.40;75.90;;;;;;4984028;28;20038;-65
2022/05/12 12:23:32;;;;;;;5.90;1.02;;;18.50;76.40;;;;;;4995093;28;20045;-65
2022/05/12 12:26:13;;;;;;;3.33;1.15;;;18.60;75.70;;;;;;4995150;28;20444;-65
2022/05/12 12:28:53;;;;;;;2.25;1.10;;;18.70;75.50;;;;;;4981469;28;20042;-65
2022/05/12 12:31:25;;;;;;;1.20;1.00;;;18.60;75.60;;;;;;4994528;28;20030;-68
2022/05/12 12:34:10;;;;;;;1.50;0.82;;;18.70;75.10;;;;;;4993922;28;20031;-68
2022/05/12 12:36:36;;;;;;;1.75;0.88;;;18.70;74.60;;;;;;4994117;28;20041;-68
2022/05/12 12:39:10;;;;;;;0.93;0.70;;;18.70;73.90;;;;;;4992402;28;20035;-68
2022/05/12 12:41:43;;;;;;;3.80;1.02;;;18.70;73.40;;;;;;4991361;28;20120;-68
2022/05/12 12:44:21;;;;;;;1.65;1.35;;;18.70;74.10;;;;;;4991931;28;20489;-68
2022/05/12 12:46:59;;;;;;;2.92;1.15;;;18.80;74.40;;;;;;4992076;28;20076;-69
2022/05/12 12:49:45;;;;;;;6.45;1.20;;;19.00;74.50;;;;;;4991579;28;20034;-68
2022/05/12 12:52:13;;;;;;;1.45;1.02;;;19.00;73.40;;;;;;4991479;28;20035;-68
2022/05/12 12:57:39;;;;;;;0.77;0.55;;;19.10;72.90;;;;;;4991582;28;20045;-68
2022/05/12 13:00:14;;;;;;;1.58;1.02;;;19.20;73.90;;;;;;4991923;28;20023;-69
2022/05/12 13:02:43;;;;;;;5.05;1.10;;;19.20;73.60;;;;;;4990620;28;20074;-69
2022/05/12 13:05:20;;;;;;;2.22;0.90;;;19.30;73.00;;;;;;4989584;28;20056;-69
2022/05/12 13:07:58;;;;;;;1.00;0.80;;;19.30;72.90;;;;;;4987770;28;20037;-69
2022/05/12 13:10:25;;;;;;;4.13;1.17;;;19.40;72.90;;;;;;4990502;28;20136;-68
2022/05/12 13:13:09;;;;;;;1.67;1.05;;;19.40;72.40;;;;;;4991619;28;20041;-69
2022/05/12 13:15:39;;;;;;;1.10;0.82;;;19.40;72.50;;;;;;4990186;28;20043;-69
2022/05/12 13:18:08;;;;;;;3.47;0.98;;;19.50;72.30;;;;;;4991639;28;20030;-69
2022/05/12 13:20:42;;;;;;;0.70;0.52;;;19.50;72.00;;;;;;4991538;28;20042;-69
2022/05/12 13:23:17;;;;;;;0.77;0.77;;;19.50;72.30;;;;;;4989120;28;20109;-69
2022/05/12 13:25:46;;;;;;;2.05;0.80;;;19.50;72.80;;;;;;4989789;28;20057;-70
2022/05/12 13:28:25;;;;;;;2.33;1.08;;;19.60;72.30;;;;;;4990123;28;20038;-69
2022/05/12 13:31:11;;;;;;;2.65;1.00;;;19.60;72.50;;;;;;4986575;28;20065;-69